sensor_id;sensor_type;location;lat;lon;timestamp;noise_LAeq;noise_LA_min;noise_LA_max;noise_LA01;noise_LA95
48967;Laerm;46511;53.148;8.204;2023-06-14T00:00:15;43.12;40.33;46.05;;
48967;Laerm;46511;53.148;8.204;2023-06-14T00:02:47;53.80;39.81;72.95;;
48967;Laerm;46511;53.148;8.204;2023-06-14T00:05:19;42.99;40.23;45.07;;
48967;Laerm;46511;53.148;8.204;2023-06-14T00:07:50;43.01;40.13;47.02;;
48967;Laerm;46511;53.148;8.204;2023-06-14T00:10:24;42.66;39.08;44.47;;
48967;Laerm;46511;53.148;8.204;2023-06-14T00:12:55;43.09;38.52;46.76;;
48967;Laerm;46511;53.148;8.204;2023-06-14T00:15:27;43.12;40.62;45.51;;
48967;Laerm;46511;53.148;8.204;2023-06-14T00:17:59;43.34;40.80;46.18;;
48967;Laerm;46511;53.148;8.204;2023-06-14T00:20:33;46.35;40.62;59.83;;
48967;Laerm;46511;53.148;8.204;2023-06-14T00:23:04;42.64;39.34;45.42;;
48967;Laerm;46511;53.148;8.204;2023-06-14T00:25:36;42.92;39.58;45.42;;
48967;Laerm;46511;53.148;8.204;2023-06-14T00:28:07;43.24;40.71;46.50;;
48967;Laerm;46511;53.148;8.204;2023-06-14T00:30:39;43.13;39.11;45.23;;
48967;Laerm;46511;53.148;8.204;2023-06-14T00:33:10;43.05;40.13;45.42;;
48967;Laerm;46511;53.148;8.204;2023-06-14T00:35:41;43.14;40.33;49.27;;
48967;Laerm;46511;53.148;8.204;2023-06-14T00:38:13;43.57;40.71;45.94;;
48967;Laerm;46511;53.148;8.204;2023-06-14T00:40:44;43.31;40.98;45.91;;
48967;Laerm;46511;53.148;8.204;2023-06-14T00:43:15;43.16;40.53;45.77;;
48967;Laerm;46511;53.148;8.204;2023-06-14T00:45:47;42.87;40.33;45.33;;
48967;Laerm;46511;53.148;8.204;2023-06-14T00:48:21;42.87;39.46;45.23;;
48967;Laerm;46511;53.148;8.204;2023-06-14T00:50:53;43.23;40.43;45.37;;
48967;Laerm;46511;53.148;8.204;2023-06-14T00:53:25;43.19;38.18;48.51;;
48967;Laerm;46511;53.148;8.204;2023-06-14T00:55:56;43.49;41.14;47.24;;
48967;Laerm;46511;53.148;8.204;2023-06-14T00:58:28;46.50;41.89;55.05;;
48967;Laerm;46511;53.148;8.204;2023-06-14T01:00:59;43.93;40.03;47.57;;
48967;Laerm;46511;53.148;8.204;2023-06-14T01:03:31;43.74;39.81;65.45;;
48967;Laerm;46511;53.148;8.204;2023-06-14T01:09:48;43.49;40.80;46.69;;
48967;Laerm;46511;53.148;8.204;2023-06-14T01:12:41;56.69;41.46;70.61;;
48967;Laerm;46511;53.148;8.204;2023-06-14T01:15:15;47.31;42.53;58.94;;
48967;Laerm;46511;53.148;8.204;2023-06-14T01:17:49;47.27;41.46;58.34;;
48967;Laerm;46511;53.148;8.204;2023-06-14T01:20:28;49.27;42.35;59.62;;
48967;Laerm;46511;53.148;8.204;2023-06-14T01:22:59;43.87;41.14;58.91;;
48967;Laerm;46511;53.148;8.204;2023-06-14T01:25:31;44.17;41.22;46.57;;
48967;Laerm;46511;53.148;8.204;2023-06-14T01:28:05;44.16;40.23;62.79;;
48967;Laerm;46511;53.148;8.204;2023-06-14T01:30:44;43.30;40.33;45.37;;
48967;Laerm;46511;53.148;8.204;2023-06-14T01:33:19;57.42;38.37;77.26;;
48967;Laerm;46511;53.148;8.204;2023-06-14T01:35:52;43.99;41.46;52.19;;
48967;Laerm;46511;53.148;8.204;2023-06-14T01:38:25;43.87;41.06;54.94;;
48967;Laerm;46511;53.148;8.204;2023-06-14T01:40:58;43.52;40.98;53.06;;
48967;Laerm;46511;53.148;8.204;2023-06-14T01:43:31;43.44;40.98;54.36;;
48967;Laerm;46511;53.148;8.204;2023-06-14T01:46:03;44.53;40.96;59.13;;
48967;Laerm;46511;53.148;8.204;2023-06-14T01:48:34;51.87;41.53;70.10;;
48967;Laerm;46511;53.148;8.204;2023-06-14T01:51:05;51.55;41.61;68.52;;
48967;Laerm;46511;53.148;8.204;2023-06-14T01:53:37;53.16;42.93;68.22;;
48967;Laerm;46511;53.148;8.204;2023-06-14T01:56:08;59.44;43.04;76.53;;
48967;Laerm;46511;53.148;8.204;2023-06-14T01:58:39;61.88;43.63;74.55;;
48967;Laerm;46511;53.148;8.204;2023-06-14T02:01:11;55.00;42.95;70.91;;
48967;Laerm;46511;53.148;8.204;2023-06-14T02:03:43;53.90;42.59;68.59;;
48967;Laerm;46511;53.148;8.204;2023-06-14T02:06:16;54.08;42.29;67.74;;
48967;Laerm;46511;53.148;8.204;2023-06-14T02:08:47;55.62;42.03;76.60;;
48967;Laerm;46511;53.148;8.204;2023-06-14T02:11:18;54.26;42.88;67.24;;
48967;Laerm;46511;53.148;8.204;2023-06-14T02:13:49;54.39;43.00;69.50;;
48967;Laerm;46511;53.148;8.204;2023-06-14T02:16:21;54.41;43.04;68.92;;
48967;Laerm;46511;53.148;8.204;2023-06-14T02:18:53;55.87;43.09;70.19;;
48967;Laerm;46511;53.148;8.204;2023-06-14T02:21:24;57.31;42.59;76.82;;
48967;Laerm;46511;53.148;8.204;2023-06-14T02:23:56;54.42;42.59;69.12;;
48967;Laerm;46511;53.148;8.204;2023-06-14T02:26:27;54.75;42.41;72.27;;
48967;Laerm;46511;53.148;8.204;2023-06-14T02:29:00;54.67;42.35;70.28;;
48967;Laerm;46511;53.148;8.204;2023-06-14T02:31:26;57.54;42.59;74.77;;
48967;Laerm;46511;53.148;8.204;2023-06-14T02:33:58;52.52;42.41;69.79;;
48967;Laerm;46511;53.148;8.204;2023-06-14T02:36:29;51.74;42.47;66.17;;
48967;Laerm;46511;53.148;8.204;2023-06-14T02:38:57;50.92;42.35;71.79;;
48967;Laerm;46511;53.148;8.204;2023-06-14T02:41:31;49.93;42.29;73.44;;
48967;Laerm;46511;53.148;8.204;2023-06-14T02:44:02;50.52;42.71;69.72;;
48967;Laerm;46511;53.148;8.204;2023-06-14T02:46:33;49.13;43.04;68.05;;
48967;Laerm;46511;53.148;8.204;2023-06-14T02:49:05;48.59;42.41;65.33;;
48967;Laerm;46511;53.148;8.204;2023-06-14T02:51:36;51.46;42.35;67.70;;
48967;Laerm;46511;53.148;8.204;2023-06-14T02:54:08;45.95;42.22;58.80;;
48967;Laerm;46511;53.148;8.204;2023-06-14T02:56:39;45.31;42.41;56.45;;
48967;Laerm;46511;53.148;8.204;2023-06-14T02:59:08;46.61;42.35;58.33;;
48967;Laerm;46511;53.148;8.204;2023-06-14T03:01:40;60.63;43.86;73.41;;
48967;Laerm;46511;53.148;8.204;2023-06-14T03:04:12;46.47;42.16;58.69;;
48967;Laerm;46511;53.148;8.204;2023-06-14T03:06:43;50.51;42.53;66.46;;
48967;Laerm;46511;53.148;8.204;2023-06-14T03:09:16;49.17;42.41;61.42;;
48967;Laerm;46511;53.148;8.204;2023-06-14T03:11:47;48.84;43.24;64.71;;
48967;Laerm;46511;53.148;8.204;2023-06-14T03:14:18;50.89;43.34;66.48;;
48967;Laerm;46511;53.148;8.204;2023-06-14T03:16:50;57.65;42.82;70.84;;
48967;Laerm;46511;53.148;8.204;2023-06-14T03:19:21;47.63;42.82;63.02;;
48967;Laerm;46511;53.148;8.204;2023-06-14T03:21:52;54.82;42.65;67.42;;
48967;Laerm;46511;53.148;8.204;2023-06-14T03:24:25;54.22;42.65;71.12;;
48967;Laerm;46511;53.148;8.204;2023-06-14T03:26:58;51.95;43.34;67.94;;
48967;Laerm;46511;53.148;8.204;2023-06-14T03:29:29;50.44;43.24;64.63;;
48967;Laerm;46511;53.148;8.204;2023-06-14T03:32:02;51.11;43.44;63.79;;
48967;Laerm;46511;53.148;8.204;2023-06-14T03:34:34;49.68;43.14;62.79;;
48967;Laerm;46511;53.148;8.204;2023-06-14T03:37:05;46.14;43.04;59.30;;
48967;Laerm;46511;53.148;8.204;2023-06-14T03:39:37;57.36;43.86;74.22;;
48967;Laerm;46511;53.148;8.204;2023-06-14T03:42:08;46.78;43.49;61.85;;
48967;Laerm;46511;53.148;8.204;2023-06-14T03:44:40;48.62;43.24;66.77;;
48967;Laerm;46511;53.148;8.204;2023-06-14T03:47:06;52.50;43.39;64.38;;
48967;Laerm;46511;53.148;8.204;2023-06-14T03:49:37;50.48;43.04;64.10;;
48967;Laerm;46511;53.148;8.204;2023-06-14T03:52:09;51.86;43.14;65.69;;
48967;Laerm;46511;53.148;8.204;2023-06-14T03:54:40;47.15;43.68;61.86;;
48967;Laerm;46511;53.148;8.204;2023-06-14T03:57:12;48.25;43.19;61.95;;
48967;Laerm;46511;53.148;8.204;2023-06-14T03:59:43;51.14;43.86;64.96;;
48967;Laerm;46511;53.148;8.204;2023-06-14T04:02:14;48.49;43.58;62.62;;
48967;Laerm;46511;53.148;8.204;2023-06-14T04:04:49;50.67;43.34;64.77;;
48967;Laerm;46511;53.148;8.204;2023-06-14T04:07:20;47.89;43.72;64.92;;
48967;Laerm;46511;53.148;8.204;2023-06-14T04:09:52;54.78;43.90;71.01;;
48967;Laerm;46511;53.148;8.204;2023-06-14T04:12:23;48.05;43.90;61.71;;
48967;Laerm;46511;53.148;8.204;2023-06-14T04:14:54;49.28;43.90;69.50;;
48967;Laerm;46511;53.148;8.204;2023-06-14T04:17:26;57.92;44.76;68.26;;
48967;Laerm;46511;53.148;8.204;2023-06-14T04:19:59;56.19;43.86;69.39;;
48967;Laerm;46511;53.148;8.204;2023-06-14T04:22:31;52.46;44.19;65.40;;
48967;Laerm;46511;53.148;8.204;2023-06-14T04:25:02;51.82;43.77;70.68;;
48967;Laerm;46511;53.148;8.204;2023-06-14T04:27:34;51.01;44.35;63.01;;
48967;Laerm;46511;53.148;8.204;2023-06-14T04:30:07;47.85;43.49;60.09;;
48967;Laerm;46511;53.148;8.204;2023-06-14T04:32:39;48.92;43.99;62.69;;
48967;Laerm;46511;53.148;8.204;2023-06-14T04:35:08;55.63;44.23;67.18;;
48967;Laerm;46511;53.148;8.204;2023-06-14T04:37:40;47.36;43.90;59.32;;
48967;Laerm;46511;53.148;8.204;2023-06-14T04:40:14;46.52;43.68;63.40;;
48967;Laerm;46511;53.148;8.204;2023-06-14T04:42:45;53.15;43.54;68.99;;
48967;Laerm;46511;53.148;8.204;2023-06-14T04:45:17;47.41;43.77;64.20;;
48967;Laerm;46511;53.148;8.204;2023-06-14T04:47:48;49.86;43.77;61.85;;
48967;Laerm;46511;53.148;8.204;2023-06-14T04:50:20;53.86;44.15;68.46;;
48967;Laerm;46511;53.148;8.204;2023-06-14T04:52:53;54.33;43.68;66.68;;
48967;Laerm;46511;53.148;8.204;2023-06-14T04:55:19;53.66;44.35;66.93;;
48967;Laerm;46511;53.148;8.204;2023-06-14T04:57:51;53.34;44.23;64.31;;
48967;Laerm;46511;53.148;8.204;2023-06-14T05:00:24;61.15;44.47;83.19;;
48967;Laerm;46511;53.148;8.204;2023-06-14T05:02:55;53.30;44.23;65.61;;
48967;Laerm;46511;53.148;8.204;2023-06-14T05:05:28;51.08;43.86;64.05;;
48967;Laerm;46511;53.148;8.204;2023-06-14T05:07:59;53.19;44.11;65.88;;
48967;Laerm;46511;53.148;8.204;2023-06-14T05:10:30;59.79;44.35;76.47;;
48967;Laerm;46511;53.148;8.204;2023-06-14T05:13:02;63.72;44.58;80.80;;
48967;Laerm;46511;53.148;8.204;2023-06-14T05:15:34;57.71;44.47;66.53;;
48967;Laerm;46511;53.148;8.204;2023-06-14T05:18:05;54.20;44.35;65.54;;
48967;Laerm;46511;53.148;8.204;2023-06-14T05:20:39;57.03;44.54;70.13;;
48967;Laerm;46511;53.148;8.204;2023-06-14T05:23:09;54.70;44.11;67.14;;
48967;Laerm;46511;53.148;8.204;2023-06-14T05:25:46;55.27;44.23;69.46;;
48967;Laerm;46511;53.148;8.204;2023-06-14T05:28:17;57.89;48.21;71.77;;
48967;Laerm;46511;53.148;8.204;2023-06-14T05:30:43;57.51;51.80;70.44;;
48967;Laerm;46511;53.148;8.204;2023-06-14T05:33:15;57.81;51.75;72.77;;
48967;Laerm;46511;53.148;8.204;2023-06-14T05:35:46;57.22;51.42;71.57;;
48967;Laerm;46511;53.148;8.204;2023-06-14T05:38:18;57.85;51.56;75.59;;
48967;Laerm;46511;53.148;8.204;2023-06-14T05:40:49;58.73;51.31;75.85;;
48967;Laerm;46511;53.148;8.204;2023-06-14T05:43:20;57.43;51.53;67.84;;
48967;Laerm;46511;53.148;8.204;2023-06-14T05:45:52;57.41;51.72;72.41;;
48967;Laerm;46511;53.148;8.204;2023-06-14T05:48:23;56.62;51.38;73.23;;
48967;Laerm;46511;53.148;8.204;2023-06-14T05:50:54;57.30;51.83;68.62;;
48967;Laerm;46511;53.148;8.204;2023-06-14T05:53:25;57.97;51.46;69.75;;
48967;Laerm;46511;53.148;8.204;2023-06-14T05:55:57;58.08;50.98;69.59;;
48967;Laerm;46511;53.148;8.204;2023-06-14T05:58:28;57.37;51.36;65.88;;
48967;Laerm;46511;53.148;8.204;2023-06-14T06:00:59;57.83;51.56;73.30;;
48967;Laerm;46511;53.148;8.204;2023-06-14T06:03:32;55.20;50.71;66.31;;
48967;Laerm;46511;53.148;8.204;2023-06-14T06:06:03;57.02;51.24;66.97;;
48967;Laerm;46511;53.148;8.204;2023-06-14T06:08:34;57.51;51.02;70.12;;
48967;Laerm;46511;53.148;8.204;2023-06-14T06:11:06;57.42;51.45;69.58;;
48967;Laerm;46511;53.148;8.204;2023-06-14T06:13:37;58.83;50.68;66.88;;
48967;Laerm;46511;53.148;8.204;2023-06-14T06:16:10;58.27;51.62;70.11;;
48967;Laerm;46511;53.148;8.204;2023-06-14T06:18:41;54.52;50.37;62.32;;
48967;Laerm;46511;53.148;8.204;2023-06-14T06:21:12;56.41;51.18;65.87;;
48967;Laerm;46511;53.148;8.204;2023-06-14T06:23:44;57.89;50.81;67.85;;
48967;Laerm;46511;53.148;8.204;2023-06-14T06:26:15;55.10;50.25;66.36;;
48967;Laerm;46511;53.148;8.204;2023-06-14T06:28:46;57.70;50.28;75.74;;
48967;Laerm;46511;53.148;8.204;2023-06-14T06:31:18;57.03;50.32;76.76;;
48967;Laerm;46511;53.148;8.204;2023-06-14T06:33:49;55.35;50.30;67.96;;
48967;Laerm;46511;53.148;8.204;2023-06-14T06:36:21;56.31;50.70;74.96;;
48967;Laerm;46511;53.148;8.204;2023-06-14T06:38:53;55.69;50.79;65.18;;
48967;Laerm;46511;53.148;8.204;2023-06-14T06:41:21;56.81;50.41;66.80;;
48967;Laerm;46511;53.148;8.204;2023-06-14T06:43:53;56.69;50.35;77.87;;
48967;Laerm;46511;53.148;8.204;2023-06-14T06:46:24;59.49;49.92;76.96;;
48967;Laerm;46511;53.148;8.204;2023-06-14T06:48:55;58.79;50.12;77.37;;
48967;Laerm;46511;53.148;8.204;2023-06-14T06:51:27;59.41;50.54;77.71;;
48967;Laerm;46511;53.148;8.204;2023-06-14T06:53:58;55.78;50.22;77.89;;
48967;Laerm;46511;53.148;8.204;2023-06-14T06:56:29;58.59;51.38;77.55;;
48967;Laerm;46511;53.148;8.204;2023-06-14T06:59:02;57.76;50.30;73.18;;
48967;Laerm;46511;53.148;8.204;2023-06-14T07:01:33;57.00;50.11;70.80;;
48967;Laerm;46511;53.148;8.204;2023-06-14T07:04:07;57.63;45.54;80.97;;
48967;Laerm;46511;53.148;8.204;2023-06-14T07:06:38;54.00;42.98;82.32;;
48967;Laerm;46511;53.148;8.204;2023-06-14T07:09:10;63.73;45.86;79.80;;
48967;Laerm;46511;53.148;8.204;2023-06-14T07:11:46;65.68;44.73;85.23;;
48967;Laerm;46511;53.148;8.204;2023-06-14T07:14:18;54.95;42.59;69.56;;
48967;Laerm;46511;53.148;8.204;2023-06-14T07:16:50;56.33;41.75;67.53;;
48967;Laerm;46511;53.148;8.204;2023-06-14T07:19:21;57.25;43.34;70.59;;
48967;Laerm;46511;53.148;8.204;2023-06-14T07:21:47;59.76;42.82;76.53;;
48967;Laerm;46511;53.148;8.204;2023-06-14T07:24:19;51.25;40.71;64.96;;
48967;Laerm;46511;53.148;8.204;2023-06-14T07:26:52;80.60;42.41;101.59;;
48967;Laerm;46511;53.148;8.204;2023-06-14T07:29:23;59.57;41.89;76.92;;
48967;Laerm;46511;53.148;8.204;2023-06-14T07:31:55;58.31;42.98;74.34;;
48967;Laerm;46511;53.148;8.204;2023-06-14T07:34:26;55.07;42.29;74.04;;
48967;Laerm;46511;53.148;8.204;2023-06-14T07:37:00;56.19;46.57;71.04;;
48967;Laerm;46511;53.148;8.204;2023-06-14T07:39:31;57.82;43.24;70.47;;
48967;Laerm;46511;53.148;8.204;2023-06-14T07:42:03;54.10;42.65;69.30;;
48967;Laerm;46511;53.148;8.204;2023-06-14T07:44:34;54.16;42.82;65.92;;
48967;Laerm;46511;53.148;8.204;2023-06-14T07:47:06;59.48;43.44;73.33;;
48967;Laerm;46511;53.148;8.204;2023-06-14T07:49:37;53.68;43.14;67.90;;
48967;Laerm;46511;53.148;8.204;2023-06-14T07:52:08;53.44;43.09;65.68;;
48967;Laerm;46511;53.148;8.204;2023-06-14T07:54:40;53.78;42.09;66.29;;
48967;Laerm;46511;53.148;8.204;2023-06-14T07:57:12;54.92;43.77;63.89;;
48967;Laerm;46511;53.148;8.204;2023-06-14T07:59:43;56.96;49.82;78.99;;
48967;Laerm;46511;53.148;8.204;2023-06-14T08:02:14;66.31;50.33;85.18;;
48967;Laerm;46511;53.148;8.204;2023-06-14T08:04:46;57.37;50.51;77.67;;
48967;Laerm;46511;53.148;8.204;2023-06-14T08:07:19;58.45;50.94;79.58;;
48967;Laerm;46511;53.148;8.204;2023-06-14T08:09:51;55.92;49.96;67.16;;
48967;Laerm;46511;53.148;8.204;2023-06-14T08:12:17;56.82;50.10;65.93;;
48967;Laerm;46511;53.148;8.204;2023-06-14T08:14:48;57.25;50.18;68.02;;
48967;Laerm;46511;53.148;8.204;2023-06-14T08:17:19;57.61;50.10;79.31;;
48967;Laerm;46511;53.148;8.204;2023-06-14T08:19:51;58.53;50.04;79.17;;
48967;Laerm;46511;53.148;8.204;2023-06-14T08:22:23;57.96;50.56;76.90;;
48967;Laerm;46511;53.148;8.204;2023-06-14T08:24:55;58.02;51.09;79.25;;
48967;Laerm;46511;53.148;8.204;2023-06-14T08:27:22;58.30;50.78;74.78;;
48967;Laerm;46511;53.148;8.204;2023-06-14T08:29:53;54.41;50.10;63.70;;
48967;Laerm;46511;53.148;8.204;2023-06-14T08:32:25;57.22;49.91;67.73;;
48967;Laerm;46511;53.148;8.204;2023-06-14T08:34:56;55.75;50.14;74.20;;
48967;Laerm;46511;53.148;8.204;2023-06-14T08:37:27;57.75;50.17;76.32;;
48967;Laerm;46511;53.148;8.204;2023-06-14T08:40:00;56.42;50.28;73.43;;
48967;Laerm;46511;53.148;8.204;2023-06-14T08:42:32;58.56;50.66;70.41;;
48967;Laerm;46511;53.148;8.204;2023-06-14T08:45:04;58.39;50.73;77.90;;
48967;Laerm;46511;53.148;8.204;2023-06-14T08:47:36;57.30;50.15;69.87;;
48967;Laerm;46511;53.148;8.204;2023-06-14T08:50:08;58.57;50.41;70.50;;
48967;Laerm;46511;53.148;8.204;2023-06-14T08:52:42;60.98;52.60;72.37;;
48967;Laerm;46511;53.148;8.204;2023-06-14T08:55:17;55.96;49.91;71.34;;
48967;Laerm;46511;53.148;8.204;2023-06-14T08:57:49;59.08;50.67;70.38;;
48967;Laerm;46511;53.148;8.204;2023-06-14T09:00:22;56.69;50.28;76.21;;
48967;Laerm;46511;53.148;8.204;2023-06-14T09:02:53;58.68;50.91;76.78;;
48967;Laerm;46511;53.148;8.204;2023-06-14T09:05:34;58.36;50.53;75.41;;
48967;Laerm;46511;53.148;8.204;2023-06-14T09:08:06;55.83;50.43;75.76;;
48967;Laerm;46511;53.148;8.204;2023-06-14T09:10:39;57.70;50.84;77.94;;
48967;Laerm;46511;53.148;8.204;2023-06-14T09:13:11;57.78;50.72;79.51;;
48967;Laerm;46511;53.148;8.204;2023-06-14T09:15:43;60.93;50.68;83.76;;
48967;Laerm;46511;53.148;8.204;2023-06-14T09:18:14;60.96;50.67;76.60;;
48967;Laerm;46511;53.148;8.204;2023-06-14T09:20:46;56.93;50.61;74.58;;
48967;Laerm;46511;53.148;8.204;2023-06-14T09:23:21;56.87;50.49;66.98;;
48967;Laerm;46511;53.148;8.204;2023-06-14T09:25:53;58.25;50.87;76.48;;
48967;Laerm;46511;53.148;8.204;2023-06-14T09:28:28;51.12;42.59;64.37;;
48967;Laerm;46511;53.148;8.204;2023-06-14T09:31:00;54.38;43.29;72.23;;
48967;Laerm;46511;53.148;8.204;2023-06-14T09:33:32;54.53;42.82;69.11;;
48967;Laerm;46511;53.148;8.204;2023-06-14T09:36:04;61.98;45.94;75.60;;
48967;Laerm;46511;53.148;8.204;2023-06-14T09:38:40;59.39;43.09;79.96;;
48967;Laerm;46511;53.148;8.204;2023-06-14T09:41:12;58.71;44.73;71.49;;
48967;Laerm;46511;53.148;8.204;2023-06-14T09:43:43;56.03;43.77;78.45;;
48967;Laerm;46511;53.148;8.204;2023-06-14T09:46:17;57.46;43.54;72.15;;
48967;Laerm;46511;53.148;8.204;2023-06-14T09:48:49;57.31;44.11;82.77;;
48967;Laerm;46511;53.148;8.204;2023-06-14T09:51:22;56.28;44.27;72.13;;
48967;Laerm;46511;53.148;8.204;2023-06-14T09:53:59;56.38;43.54;72.49;;
48967;Laerm;46511;53.148;8.204;2023-06-14T09:56:35;55.65;43.14;75.89;;
48967;Laerm;46511;53.148;8.204;2023-06-14T09:59:09;54.32;43.24;71.50;;
48967;Laerm;46511;53.148;8.204;2023-06-14T10:01:44;56.67;42.71;68.37;;
48967;Laerm;46511;53.148;8.204;2023-06-14T10:04:19;52.68;40.33;63.15;;
48967;Laerm;46511;53.148;8.204;2023-06-14T10:06:53;58.76;42.59;78.50;;
48967;Laerm;46511;53.148;8.204;2023-06-14T10:09:25;56.47;42.82;68.53;;
48967;Laerm;46511;53.148;8.204;2023-06-14T10:11:57;55.64;43.49;69.33;;
48967;Laerm;46511;53.148;8.204;2023-06-14T10:14:29;56.04;43.58;69.96;;
48967;Laerm;46511;53.148;8.204;2023-06-14T10:17:10;52.96;43.44;71.60;;
48967;Laerm;46511;53.148;8.204;2023-06-14T10:19:50;62.44;43.34;83.53;;
48967;Laerm;46511;53.148;8.204;2023-06-14T10:22:39;57.61;44.03;70.86;;
48967;Laerm;46511;53.148;8.204;2023-06-14T10:25:26;56.68;43.63;66.21;;
48967;Laerm;46511;53.148;8.204;2023-06-14T10:30:35;59.66;45.33;74.42;;
48967;Laerm;46511;53.148;8.204;2023-06-14T10:33:07;56.02;49.67;68.19;;
48967;Laerm;46511;53.148;8.204;2023-06-14T10:35:38;55.59;49.72;78.71;;
48967;Laerm;46511;53.148;8.204;2023-06-14T10:38:11;56.49;50.17;79.26;;
48967;Laerm;46511;53.148;8.204;2023-06-14T10:40:52;61.30;51.68;74.61;;
48967;Laerm;46511;53.148;8.204;2023-06-14T10:43:25;57.22;50.42;74.31;;
48967;Laerm;46511;53.148;8.204;2023-06-14T10:46:31;57.80;50.04;78.05;;
48967;Laerm;46511;53.148;8.204;2023-06-14T10:48:58;59.44;51.19;80.09;;
48967;Laerm;46511;53.148;8.204;2023-06-14T10:51:38;59.03;50.48;76.45;;
48967;Laerm;46511;53.148;8.204;2023-06-14T10:54:16;56.15;50.06;75.17;;
48967;Laerm;46511;53.148;8.204;2023-06-14T10:56:49;61.30;49.24;73.96;;
48967;Laerm;46511;53.148;8.204;2023-06-14T10:59:21;59.96;49.14;77.78;;
48967;Laerm;46511;53.148;8.204;2023-06-14T11:02:15;55.26;48.78;62.10;;
48967;Laerm;46511;53.148;8.204;2023-06-14T11:04:51;54.67;48.73;67.73;;
48967;Laerm;46511;53.148;8.204;2023-06-14T11:10:39;58.83;49.19;77.94;;
48967;Laerm;46511;53.148;8.204;2023-06-14T11:13:09;57.30;49.29;71.89;;
48967;Laerm;46511;53.148;8.204;2023-06-14T11:15:44;57.18;49.14;74.62;;
48967;Laerm;46511;53.148;8.204;2023-06-14T11:18:16;55.89;49.87;71.32;;
48967;Laerm;46511;53.148;8.204;2023-06-14T11:20:47;57.44;50.71;77.16;;
48967;Laerm;46511;53.148;8.204;2023-06-14T11:23:19;58.22;49.84;80.58;;
48967;Laerm;46511;53.148;8.204;2023-06-14T11:25:52;59.12;50.67;78.34;;
48967;Laerm;46511;53.148;8.204;2023-06-14T11:28:23;57.71;50.62;78.07;;
48967;Laerm;46511;53.148;8.204;2023-06-14T11:31:03;59.76;50.22;74.48;;
48967;Laerm;46511;53.148;8.204;2023-06-14T11:33:34;58.20;50.69;71.87;;
48967;Laerm;46511;53.148;8.204;2023-06-14T11:36:06;57.19;50.46;79.96;;
48967;Laerm;46511;53.148;8.204;2023-06-14T11:38:39;62.30;51.29;82.74;;
48967;Laerm;46511;53.148;8.204;2023-06-14T11:41:10;58.20;51.17;73.76;;
48967;Laerm;46511;53.148;8.204;2023-06-14T11:43:42;57.19;50.64;75.78;;
48967;Laerm;46511;53.148;8.204;2023-06-14T11:46:13;57.45;49.74;71.34;;
48967;Laerm;46511;53.148;8.204;2023-06-14T11:48:49;57.09;49.70;70.15;;
48967;Laerm;46511;53.148;8.204;2023-06-14T11:51:20;58.35;49.53;70.97;;
48967;Laerm;46511;53.148;8.204;2023-06-14T11:53:51;56.05;49.32;67.27;;
48967;Laerm;46511;53.148;8.204;2023-06-14T11:56:23;56.22;49.78;71.86;;
48967;Laerm;46511;53.148;8.204;2023-06-14T11:58:55;53.58;48.70;67.34;;
48967;Laerm;46511;53.148;8.204;2023-06-14T12:01:30;56.92;48.96;69.75;;
48967;Laerm;46511;53.148;8.204;2023-06-14T12:04:02;65.02;49.87;82.33;;
48967;Laerm;46511;53.148;8.204;2023-06-14T12:06:34;60.76;50.58;70.86;;
48967;Laerm;46511;53.148;8.204;2023-06-14T12:09:10;58.14;49.87;78.85;;
48967;Laerm;46511;53.148;8.204;2023-06-14T12:11:44;55.82;50.13;77.58;;
48967;Laerm;46511;53.148;8.204;2023-06-14T12:14:16;56.44;49.53;75.05;;
48967;Laerm;46511;53.148;8.204;2023-06-14T12:16:47;58.16;50.27;77.12;;
48967;Laerm;46511;53.148;8.204;2023-06-14T12:19:17;58.49;50.33;75.54;;
48967;Laerm;46511;53.148;8.204;2023-06-14T12:21:48;57.40;50.23;70.75;;
48967;Laerm;46511;53.148;8.204;2023-06-14T12:24:20;56.46;50.20;72.75;;
48967;Laerm;46511;53.148;8.204;2023-06-14T12:26:51;59.70;50.56;73.88;;
48967;Laerm;46511;53.148;8.204;2023-06-14T12:29:24;57.68;49.71;75.67;;
48967;Laerm;46511;53.148;8.204;2023-06-14T12:31:55;56.28;50.32;76.28;;
48967;Laerm;46511;53.148;8.204;2023-06-14T12:34:28;57.60;50.22;79.59;;
48967;Laerm;46511;53.148;8.204;2023-06-14T12:36:59;57.50;50.02;73.50;;
48967;Laerm;46511;53.148;8.204;2023-06-14T12:39:31;59.68;50.66;75.39;;
48967;Laerm;46511;53.148;8.204;2023-06-14T12:42:05;56.28;50.19;70.78;;
48967;Laerm;46511;53.148;8.204;2023-06-14T12:44:32;56.68;49.93;69.96;;
48967;Laerm;46511;53.148;8.204;2023-06-14T12:47:07;57.25;49.79;78.07;;
48967;Laerm;46511;53.148;8.204;2023-06-14T12:49:38;59.57;50.20;74.08;;
48967;Laerm;46511;53.148;8.204;2023-06-14T12:52:10;59.32;50.35;74.80;;
48967;Laerm;46511;53.148;8.204;2023-06-14T12:54:41;60.79;49.90;78.28;;
48967;Laerm;46511;53.148;8.204;2023-06-14T12:57:12;60.45;49.83;78.46;;
48967;Laerm;46511;53.148;8.204;2023-06-14T12:59:44;57.11;50.62;75.03;;
48967;Laerm;46511;53.148;8.204;2023-06-14T13:02:17;58.10;50.51;79.20;;
48967;Laerm;46511;53.148;8.204;2023-06-14T13:04:48;58.86;49.64;72.37;;
48967;Laerm;46511;53.148;8.204;2023-06-14T13:07:20;59.23;50.03;72.62;;
48967;Laerm;46511;53.148;8.204;2023-06-14T13:09:51;56.63;50.49;77.92;;
48967;Laerm;46511;53.148;8.204;2023-06-14T13:12:23;57.48;48.67;78.16;;
48967;Laerm;46511;53.148;8.204;2023-06-14T13:14:55;56.41;50.04;77.81;;
48967;Laerm;46511;53.148;8.204;2023-06-14T13:17:26;55.23;50.00;65.15;;
48967;Laerm;46511;53.148;8.204;2023-06-14T13:19:57;57.55;49.35;71.92;;
48967;Laerm;46511;53.148;8.204;2023-06-14T13:22:29;55.82;49.80;63.73;;
48967;Laerm;46511;53.148;8.204;2023-06-14T13:25:00;59.55;50.31;73.56;;
48967;Laerm;46511;53.148;8.204;2023-06-14T13:27:32;59.39;50.39;76.61;;
48967;Laerm;46511;53.148;8.204;2023-06-14T13:30:04;54.06;49.34;64.25;;
48967;Laerm;46511;53.148;8.204;2023-06-14T13:32:36;57.14;50.50;72.70;;
48967;Laerm;46511;53.148;8.204;2023-06-14T13:35:08;57.96;50.62;75.45;;
48967;Laerm;46511;53.148;8.204;2023-06-14T13:37:39;57.81;49.59;75.71;;
48967;Laerm;46511;53.148;8.204;2023-06-14T13:40:11;59.22;50.03;75.57;;
48967;Laerm;46511;53.148;8.204;2023-06-14T13:42:43;60.61;50.76;74.36;;
48967;Laerm;46511;53.148;8.204;2023-06-14T13:45:15;56.27;50.06;74.92;;
48967;Laerm;46511;53.148;8.204;2023-06-14T13:47:46;58.71;50.51;70.50;;
48967;Laerm;46511;53.148;8.204;2023-06-14T13:50:19;57.31;50.11;77.25;;
48967;Laerm;46511;53.148;8.204;2023-06-14T13:52:51;58.39;50.27;79.38;;
48967;Laerm;46511;53.148;8.204;2023-06-14T13:55:22;58.51;49.78;84.30;;
48967;Laerm;46511;53.148;8.204;2023-06-14T13:57:53;56.81;50.63;72.64;;
48967;Laerm;46511;53.148;8.204;2023-06-14T14:00:25;56.19;49.94;64.45;;
48967;Laerm;46511;53.148;8.204;2023-06-14T14:02:56;58.88;50.43;78.76;;
48967;Laerm;46511;53.148;8.204;2023-06-14T14:05:28;56.75;50.03;75.02;;
48967;Laerm;46511;53.148;8.204;2023-06-14T14:08:00;58.15;49.64;75.21;;
48967;Laerm;46511;53.148;8.204;2023-06-14T14:10:32;57.42;49.75;70.67;;
48967;Laerm;46511;53.148;8.204;2023-06-14T14:13:04;57.59;49.70;75.51;;
48967;Laerm;46511;53.148;8.204;2023-06-14T14:15:35;58.76;51.22;70.83;;
48967;Laerm;46511;53.148;8.204;2023-06-14T14:18:06;56.00;49.85;67.14;;
48967;Laerm;46511;53.148;8.204;2023-06-14T14:20:38;55.50;49.78;66.79;;